Time;durP1;ratioP1;P1;durP2;ratioP2;P2;SDS_P1;SDS_P2;PMS_P1;PMS_P2;Temp;Humidity;BMP_temperature;BMP_pressure;BME280_temperature;BME280_humidity;BME280_pressure;Samples;Min_cycle;Max_cycle;Signal;HPM_P1;HPM_P2
2023/06/15 00:00:56;;;;;;;3.38;2.53;;;18.00;70.40;;;;;;2097623;28;20039;-70
2023/06/15 00:01:58;;;;;;;2.80;2.60;;;18.00;71.40;;;;;;2098880;28;20531;-70
2023/06/15 00:02:58;;;;;;;4.25;2.70;;;18.00;71.20;;;;;;2099162;28;20142;-70
2023/06/15 00:04:00;;;;;;;2.55;2.35;;;18.00;71.90;;;;;;2098866;28;20016;-70
2023/06/15 00:05:01;;;;;;;4.45;2.65;;;18.00;71.80;;;;;;2097483;28;20519;-70
2023/06/15 00:06:01;;;;;;;3.42;2.70;;;17.90;71.10;;;;;;2097560;28;21149;-70
2023/06/15 00:07:02;;;;;;;3.20;2.45;;;17.90;72.00;;;;;;2100615;28;20035;-70
2023/06/15 00:08:03;;;;;;;3.33;2.53;;;17.90;72.00;;;;;;2100025;28;20040;-70
2023/06/15 00:09:03;;;;;;;3.13;2.78;;;17.90;71.50;;;;;;2097595;28;20194;-71
2023/06/15 00:10:04;;;;;;;9.35;2.45;;;17.90;72.10;;;;;;2096003;28;20027;-71
2023/06/15 00:11:05;;;;;;;3.35;2.55;;;17.90;72.70;;;;;;2097998;28;20020;-71
2023/06/15 00:12:09;;;;;;;2.78;2.55;;;17.80;72.50;;;;;;2097025;28;20047;-71
2023/06/15 00:13:09;;;;;;;4.40;2.83;;;17.80;72.90;;;;;;2099707;28;20024;-71
2023/06/15 00:14:10;;;;;;;4.43;3.05;;;17.80;73.60;;;;;;2098634;28;20556;-71
2023/06/15 00:15:11;;;;;;;2.95;2.70;;;17.80;74.10;;;;;;2099288;28;20020;-71
2023/06/15 00:16:12;;;;;;;4.13;2.60;;;17.80;74.20;;;;;;2101043;28;20039;-71
2023/06/15 00:17:14;;;;;;;5.25;2.90;;;17.80;74.20;;;;;;2100931;28;20029;-71
2023/06/15 00:18:14;;;;;;;3.47;2.35;;;17.80;74.30;;;;;;2098765;28;20074;-71
2023/06/15 00:19:15;;;;;;;3.53;2.40;;;17.80;73.50;;;;;;2099541;28;20024;-71
2023/06/15 00:20:16;;;;;;;3.58;2.67;;;17.70;74.00;;;;;;2100346;28;20016;-71
2023/06/15 00:21:17;;;;;;;2.45;2.10;;;17.70;74.50;;;;;;2098565;28;20038;-71
2023/06/15 00:22:17;;;;;;;4.07;3.08;;;17.70;74.30;;;;;;2098887;28;20032;-71
2023/06/15 00:23:18;;;;;;;3.45;2.50;;;17.70;74.80;;;;;;2097235;28;20468;-71
2023/06/15 00:24:21;;;;;;;3.97;2.97;;;17.70;75.20;;;;;;2098890;28;20055;-71
2023/06/15 00:25:22;;;;;;;5.40;2.63;;;17.60;75.70;;;;;;2098758;28;20902;-71
2023/06/15 00:26:23;;;;;;;5.90;3.03;;;17.60;76.00;;;;;;2101072;28;20469;-71
2023/06/15 00:27:23;;;;;;;6.47;3.20;;;17.60;76.20;;;;;;2100512;28;20049;-71
2023/06/15 00:28:24;;;;;;;3.65;3.10;;;17.60;75.90;;;;;;2100232;28;20028;-71
2023/06/15 00:29:24;;;;;;;9.45;2.90;;;17.60;76.10;;;;;;2100136;28;20031;-71
2023/06/15 00:30:25;;;;;;;3.25;2.50;;;17.60;77.00;;;;;;2097121;28;20087;-71
2023/06/15 00:31:25;;;;;;;4.30;2.92;;;17.60;75.10;;;;;;2098288;28;20480;-71
2023/06/15 00:32:26;;;;;;;2.90;2.58;;;17.60;75.90;;;;;;2098287;28;20031;-71
2023/06/15 00:33:26;;;;;;;3.22;2.88;;;17.50;75.50;;;;;;2095729;28;20025;-71
2023/06/15 00:34:27;;;;;;;6.47;3.10;;;17.50;76.00;;;;;;2098984;28;20032;-71
2023/06/15 00:35:27;;;;;;;4.55;2.58;;;17.50;76.40;;;;;;2098462;28;20030;-71
2023/06/15 00:36:28;;;;;;;4.07;2.80;;;17.50;77.00;;;;;;2097439;28;20036;-71
2023/06/15 00:37:28;;;;;;;3.17;2.50;;;17.50;77.00;;;;;;2097796;28;20024;-71
2023/06/15 00:38:29;;;;;;;4.75;3.03;;;17.50;77.40;;;;;;2099961;28;20028;-71
2023/06/15 00:39:29;;;;;;;3.80;3.00;;;17.50;77.40;;;;;;2098539;28;20055;-71
2023/06/15 00:40:30;;;;;;;2.72;2.53;;;17.40;77.90;;;;;;2098773;28;20016;-71
2023/06/15 00:41:40;;;;;;;3.35;2.47;;;17.50;77.70;;;;;;2100706;28;20020;-71
2023/06/15 00:42:41;;;;;;;3.83;2.97;;;17.40;77.30;;;;;;2101483;28;20026;-71
2023/06/15 00:43:41;;;;;;;2.92;2.72;;;17.40;77.20;;;;;;2097510;28;20526;-71
2023/06/15 00:44:42;;;;;;;4.88;2.83;;;17.40;77.90;;;;;;2096920;28;20027;-71
2023/06/15 00:45:42;;;;;;;5.18;2.92;;;17.30;78.70;;;;;;2099304;28;20029;-71
2023/06/15 00:46:43;;;;;;;2.95;2.75;;;17.30;78.50;;;;;;2099234;28;20394;-71
2023/06/15 00:47:45;;;;;;;2.72;2.53;;;17.40;79.20;;;;;;2099913;28;20410;-71
2023/06/15 00:48:46;;;;;;;4.30;3.20;;;17.30;79.00;;;;;;2099125;28;20016;-71
2023/06/15 00:49:47;;;;;;;3.08;2.78;;;17.30;79.10;;;;;;2097377;28;20024;-71
2023/06/15 00:50:48;;;;;;;3.38;2.60;;;17.30;79.90;;;;;;2098297;28;20032;-71
2023/06/15 00:51:49;;;;;;;3.22;2.92;;;17.30;78.60;;;;;;2097791;28;20104;-71
2023/06/15 00:52:51;;;;;;;4.28;2.85;;;17.20;78.90;;;;;;2099449;28;20020;-71
2023/06/15 00:53:52;;;;;;;5.70;2.97;;;17.20;79.80;;;;;;2098024;28;20107;-71
2023/06/15 00:54:53;;;;;;;5.32;3.10;;;17.20;79.00;;;;;;2097572;28;20039;-71
2023/06/15 00:55:53;;;;;;;7.28;2.95;;;17.20;79.90;;;;;;2098421;28;20066;-71
2023/06/15 00:56:55;;;;;;;3.65;2.70;;;17.20;79.90;;;;;;2099727;28;20036;-71
2023/06/15 00:57:56;;;;;;;3.05;2.70;;;17.20;79.10;;;;;;2099102;28;20016;-71
2023/06/15 00:58:57;;;;;;;3.05;2.70;;;17.20;79.80;;;;;;2099727;28;20135;-71
2023/06/15 00:59:58;;;;;;;3.20;2.90;;;17.20;79.70;;;;;;2097937;28;20025;-71
2023/06/15 01:00:59;;;;;;;3.15;2.85;;;17.20;79.60;;;;;;2098695;28;20103;-71
2023/06/15 01:01:59;;;;;;;4.53;3.22;;;17.10;80.00;;;;;;2097881;28;20025;-71
2023/06/15 01:03:04;;;;;;;6.00;3.00;;;17.10;80.70;;;;;;2097425;28;20118;-71
2023/06/15 01:04:06;;;;;;;3.20;2.70;;;17.10;80.20;;;;;;2097719;28;20031;-71
2023/06/15 01:05:12;;;;;;;3.13;2.67;;;17.10;80.20;;;;;;2096482;28;20031;-71
2023/06/15 01:06:16;;;;;;;5.95;2.88;;;17.10;80.50;;;;;;2098098;28;20381;-71
2023/06/15 01:07:20;;;;;;;3.13;2.72;;;17.00;80.60;;;;;;2098266;28;20035;-71
2023/06/15 01:08:23;;;;;;;4.60;2.78;;;17.00;81.30;;;;;;2098550;28;20020;-71
2023/06/15 01:09:25;;;;;;;2.92;2.72;;;17.00;82.20;;;;;;2098772;28;20027;-71
2023/06/15 01:10:31;;;;;;;6.07;2.60;;;17.00;81.90;;;;;;2096862;28;20017;-71
2023/06/15 01:11:34;;;;;;;2.58;2.33;;;17.00;80.70;;;;;;2099128;28;20020;-71
2023/06/15 01:12:40;;;;;;;3.13;2.83;;;17.00;80.30;;;;;;2101298;28;20017;-71
2023/06/15 01:13:43;;;;;;;4.20;2.92;;;17.00;81.50;;;;;;2101486;28;20032;-71
2023/06/15 01:14:43;;;;;;;3.00;2.80;;;17.00;82.00;;;;;;2099133;28;20025;-71
2023/06/15 01:15:44;;;;;;;3.53;2.80;;;17.00;81.50;;;;;;2100166;28;20032;-71
2023/06/15 01:16:52;;;;;;;3.53;2.83;;;17.00;81.80;;;;;;2097839;28;20029;-71
2023/06/15 01:17:59;;;;;;;3.15;2.85;;;17.00;81.90;;;;;;2100847;28;20107;-71
2023/06/15 01:19:01;;;;;;;3.25;2.90;;;16.90;83.10;;;;;;2099926;28;20392;-71
2023/06/15 01:20:06;;;;;;;5.13;3.33;;;16.90;82.90;;;;;;2098391;28;20039;-71
2023/06/15 01:21:08;;;;;;;4.15;2.42;;;17.00;83.60;;;;;;2100498;28;20060;-71
2023/06/15 01:22:55;;;;;;;3.17;2.92;;;16.90;82.20;;;;;;2102126;28;20024;-71
2023/06/15 01:24:17;;;;;;;3.33;2.92;;;16.90;83.00;;;;;;2100101;28;20027;-71
2023/06/15 01:25:29;;;;;;;3.85;3.28;;;16.90;83.70;;;;;;2100923;28;20031;-71
2023/06/15 01:26:30;;;;;;;3.20;2.92;;;16.90;84.80;;;;;;2101099;28;20020;-71
2023/06/15 01:27:33;;;;;;;6.45;3.13;;;16.80;83.50;;;;;;2101720;28;20466;-71
2023/06/15 01:28:40;;;;;;;5.15;3.35;;;16.80;84.30;;;;;;2092932;28;20476;-71
2023/06/15 01:29:41;;;;;;;4.97;3.10;;;16.80;85.50;;;;;;2100239;28;20065;-71
2023/06/15 01:30:44;;;;;;;3.80;2.95;;;16.80;86.40;;;;;;2099424;28;20559;-70
2023/06/15 01:31:45;;;;;;;4.05;3.38;;;16.80;86.50;;;;;;2099224;28;20473;-70
2023/06/15 01:32:46;;;;;;;3.85;3.50;;;16.80;86.20;;;;;;2100050;28;20024;-70
2023/06/15 01:33:48;;;;;;;4.43;3.35;;;16.80;86.60;;;;;;2098015;28;20104;-70
2023/06/15 01:34:49;;;;;;;3.55;3.03;;;16.80;87.60;;;;;;2101074;28;20021;-70
2023/06/15 01:35:49;;;;;;;3.20;2.90;;;16.70;88.10;;;;;;2100141;28;20056;-70
2023/06/15 01:36:50;;;;;;;3.50;3.20;;;16.80;87.80;;;;;;2100352;28;20555;-70
2023/06/15 01:37:51;;;;;;;3.35;3.05;;;16.80;88.60;;;;;;2100615;28;20028;-70
2023/06/15 01:38:57;;;;;;;3.85;3.33;;;16.70;89.00;;;;;;2099813;28;20052;-70
2023/06/15 01:39:57;;;;;;;3.55;3.25;;;16.70;89.00;;;;;;2100152;28;20028;-70
2023/06/15 01:41:00;;;;;;;3.00;2.80;;;16.70;88.80;;;;;;2100828;28;20059;-70
2023/06/15 01:42:01;;;;;;;3.50;3.20;;;16.70;88.90;;;;;;2099818;28;20028;-70
2023/06/15 01:43:05;;;;;;;3.88;3.45;;;16.70;89.50;;;;;;2099030;28;20028;-70
2023/06/15 01:44:06;;;;;;;6.28;3.30;;;16.70;89.50;;;;;;2101572;28;20035;-70
2023/06/15 01:45:08;;;;;;;3.78;3.28;;;16.60;90.00;;;;;;2101280;28;20028;-70
2023/06/15 01:46:09;;;;;;;3.42;3.10;;;16.60;90.30;;;;;;2100305;28;20874;-70
2023/06/15 01:47:11;;;;;;;4.05;3.60;;;16.60;90.40;;;;;;2101995;28;20409;-70
2023/06/15 01:48:12;;;;;;;5.15;3.47;;;16.60;90.70;;;;;;2099603;28;20017;-70
2023/06/15 01:49:13;;;;;;;3.45;3.15;;;16.60;90.30;;;;;;2100680;28;20649;-70
2023/06/15 01:50:14;;;;;;;3.22;2.92;;;16.60;90.30;;;;;;2098262;28;20035;-70
2023/06/15 01:51:16;;;;;;;7.05;3.22;;;16.60;90.70;;;;;;2098575;28;20454;-70
2023/06/15 01:52:17;;;;;;;3.47;2.83;;;16.60;89.80;;;;;;2098133;28;20016;-70
2023/06/15 01:53:17;;;;;;;4.05;3.42;;;16.60;89.80;;;;;;2099233;28;20077;-70
2023/06/15 01:54:18;;;;;;;6.97;3.05;;;16.60;90.10;;;;;;2099849;28;20031;-70
2023/06/15 01:55:18;;;;;;;5.13;3.13;;;16.50;90.00;;;;;;2100842;28;20476;-70
2023/06/15 01:56:19;;;;;;;3.55;3.25;;;16.50;90.10;;;;;;2098932;28;20024;-70
2023/06/15 01:57:21;;;;;;;3.88;3.13;;;16.50;90.00;;;;;;2100615;28;20176;-70
2023/06/15 01:58:22;;;;;;;5.80;3.17;;;16.50;89.50;;;;;;2100851;28;20052;-70
2023/06/15 01:59:22;;;;;;;3.63;3.28;;;16.50;90.70;;;;;;2098873;28;20035;-70
2023/06/15 02:00:24;;;;;;;4.03;3.13;;;16.50;90.80;;;;;;2097939;28;20051;-70
2023/06/15 02:01:25;;;;;;;5.15;3.35;;;16.50;91.50;;;;;;2099500;28;20020;-70
2023/06/15 02:02:25;;;;;;;3.53;3.05;;;16.50;91.80;;;;;;2098643;28;20082;-70
2023/06/15 02:03:26;;;;;;;3.88;2.85;;;16.50;91.70;;;;;;2100256;28;20079;-70
2023/06/15 02:04:26;;;;;;;8.07;3.78;;;16.40;91.30;;;;;;2098098;28;20454;-70
2023/06/15 02:05:28;;;;;;;5.05;3.58;;;16.50;91.80;;;;;;2100471;28;20025;-70
2023/06/15 02:06:29;;;;;;;4.38;3.17;;;16.40;91.80;;;;;;2100790;28;20017;-70
2023/06/15 02:07:30;;;;;;;4.55;3.08;;;16.40;91.70;;;;;;2099009;28;20050;-70
2023/06/15 02:08:30;;;;;;;4.30;3.72;;;16.40;91.50;;;;;;2099627;28;20031;-70
2023/06/15 02:09:31;;;;;;;3.65;3.10;;;16.40;92.10;;;;;;2101215;28;20016;-70
2023/06/15 02:10:31;;;;;;;5.03;3.63;;;16.40;91.50;;;;;;2097682;28;20043;-70
2023/06/15 02:11:32;;;;;;;6.20;3.38;;;16.40;91.80;;;;;;2099762;28;20190;-70
2023/06/15 02:12:32;;;;;;;5.45;3.70;;;16.40;92.20;;;;;;2100772;28;20501;-70
2023/06/15 02:13:33;;;;;;;4.55;3.50;;;16.40;91.70;;;;;;2100338;28;20028;-70
2023/06/15 02:14:33;;;;;;;3.92;3.63;;;16.40;92.20;;;;;;2099942;28;20095;-70
2023/06/15 02:15:34;;;;;;;4.10;3.63;;;16.40;92.70;;;;;;2099908;28;20077;-70
2023/06/15 02:16:35;;;;;;;3.35;3.00;;;16.40;93.20;;;;;;2101461;28;20058;-70
2023/06/15 02:17:41;;;;;;;4.45;3.80;;;16.40;92.50;;;;;;2101754;28;20072;-70
2023/06/15 02:18:44;;;;;;;4.47;3.58;;;16.40;92.80;;;;;;2100705;28;20573;-70
2023/06/15 02:19:46;;;;;;;4.40;3.60;;;16.40;92.80;;;;;;2098678;28;20483;-70
2023/06/15 02:20:46;;;;;;;4.25;3.45;;;16.30;92.30;;;;;;2097745;28;20167;-70
2023/06/15 02:21:49;;;;;;;5.38;2.90;;;16.40;91.80;;;;;;2098325;28;20027;-70
2023/06/15 02:22:52;;;;;;;5.60;3.28;;;16.30;91.70;;;;;;2099382;28;20070;-70
2023/06/15 02:23:53;;;;;;;4.50;4.00;;;16.30;92.20;;;;;;2098278;28;20028;-71
2023/06/15 02:24:53;;;;;;;4.30;3.90;;;16.30;93.10;;;;;;2098665;28;20027;-71
2023/06/15 02:25:54;;;;;;;3.50;3.20;;;16.30;93.20;;;;;;2100798;28;20035;-71
2023/06/15 02:26:54;;;;;;;5.53;3.53;;;16.30;92.70;;;;;;2097589;28;20052;-71
2023/06/15 02:27:56;;;;;;;5.53;3.65;;;16.30;92.80;;;;;;2099618;28;20016;-71
2023/06/15 02:28:57;;;;;;;4.20;3.50;;;16.30;92.50;;;;;;2099511;28;20020;-71
2023/06/15 02:29:57;;;;;;;4.28;3.88;;;16.30;93.70;;;;;;2098591;28;20028;-71
2023/06/15 02:30:58;;;;;;;4.95;3.78;;;16.30;93.80;;;;;;2098892;28;20028;-71
2023/06/15 02:31:58;;;;;;;4.63;3.97;;;16.30;93.40;;;;;;2099563;28;20063;-71
2023/06/15 02:33:04;;;;;;;4.40;3.90;;;16.30;94.10;;;;;;2101396;28;20037;-71
2023/06/15 02:34:06;;;;;;;8.25;4.53;;;16.30;94.80;;;;;;2098817;28;20518;-71
2023/06/15 02:35:09;;;;;;;6.32;4.70;;;16.30;95.40;;;;;;2099739;28;20043;-71
2023/06/15 02:36:19;;;;;;;4.75;4.00;;;16.20;95.40;;;;;;2098572;28;20112;-71
2023/06/15 02:37:19;;;;;;;3.58;3.28;;;16.20;94.50;;;;;;2100730;28;20036;-71
2023/06/15 02:38:20;;;;;;;6.22;3.85;;;16.20;93.90;;;;;;2100363;28;20032;-71
2023/06/15 02:39:21;;;;;;;5.20;3.53;;;16.20;94.80;;;;;;2099005;28;20025;-71
2023/06/15 02:40:22;;;;;;;5.63;3.63;;;16.20;94.90;;;;;;2099405;28;20020;-71
2023/06/15 02:41:22;;;;;;;4.15;3.60;;;16.20;95.20;;;;;;2098085;28;20571;-71
2023/06/15 02:42:23;;;;;;;6.40;3.90;;;16.20;95.00;;;;;;2101084;28;20663;-71
2023/06/15 02:43:24;;;;;;;3.70;3.35;;;16.20;95.50;;;;;;2100638;28;20074;-71
2023/06/15 02:44:24;;;;;;;4.22;3.65;;;16.20;95.50;;;;;;2101912;28;20020;-71
2023/06/15 02:45:25;;;;;;;3.65;3.35;;;16.20;95.20;;;;;;2098962;28;20024;-71
2023/06/15 02:46:25;;;;;;;5.78;3.90;;;16.20;95.70;;;;;;2098899;28;20054;-71
2023/06/15 02:47:28;;;;;;;4.30;3.90;;;16.20;96.30;;;;;;2100476;28;20475;-71
2023/06/15 02:48:29;;;;;;;4.70;3.70;;;16.20;96.30;;;;;;2099983;28;20490;-71
2023/06/15 02:49:30;;;;;;;5.18;3.88;;;16.20;96.20;;;;;;2098655;28;20096;-71
2023/06/15 02:50:30;;;;;;;4.65;4.25;;;16.20;96.30;;;;;;2099481;28;20028;-71
2023/06/15 02:51:31;;;;;;;4.35;3.92;;;16.20;96.50;;;;;;2098741;28;20039;-71
2023/06/15 02:52:31;;;;;;;3.97;3.67;;;16.20;96.60;;;;;;2099985;28;20030;-71
2023/06/15 02:53:32;;;;;;;3.85;3.28;;;16.20;96.90;;;;;;2096874;28;20437;-71
2023/06/15 02:54:34;;;;;;;4.55;3.42;;;16.10;96.40;;;;;;2099859;28;20376;-71
2023/06/15 02:55:37;;;;;;;4.22;3.72;;;16.10;96.20;;;;;;2101003;28;20028;-71
2023/06/15 02:56:37;;;;;;;4.82;3.97;;;16.10;97.20;;;;;;2099382;28;20066;-71
2023/06/15 02:57:38;;;;;;;4.40;4.00;;;16.10;97.40;;;;;;2099642;28;20493;-71
2023/06/15 02:58:42;;;;;;;6.53;3.95;;;16.10;97.50;;;;;;2099391;28;20419;-71
2023/06/15 02:59:44;;;;;;;5.18;4.38;;;16.10;97.90;;;;;;2099979;28;20037;-71
2023/06/15 03:00:48;;;;;;;5.43;4.00;;;16.10;98.10;;;;;;2099109;28;20082;-71
2023/06/15 03:01:49;;;;;;;7.57;3.85;;;16.10;97.40;;;;;;2099311;28;20604;-71
2023/06/15 03:02:52;;;;;;;9.18;4.78;;;16.10;97.60;;;;;;2100759;28;20422;-71
2023/06/15 03:03:52;;;;;;;4.40;3.72;;;16.10;98.20;;;;;;2099131;28;20038;-71
2023/06/15 03:04:53;;;;;;;4.28;3.88;;;16.10;97.60;;;;;;2100293;28;20025;-71
2023/06/15 03:05:54;;;;;;;4.65;4.13;;;16.10;97.40;;;;;;2098737;28;20032;-71
2023/06/15 03:06:56;;;;;;;4.85;4.45;;;16.10;97.60;;;;;;2103262;28;20468;-71
2023/06/15 03:07:56;;;;;;;5.40;4.20;;;16.10;98.20;;;;;;2103507;28;20514;-71
2023/06/15 03:08:57;;;;;;;7.28;4.82;;;16.10;98.60;;;;;;2098837;28;20016;-71
2023/06/15 03:09:57;;;;;;;8.77;4.47;;;16.10;99.30;;;;;;2098264;28;20095;-71
2023/06/15 03:10:58;;;;;;;4.85;4.35;;;16.00;99.20;;;;;;2098996;28;20114;-71
2023/06/15 03:11:58;;;;;;;5.03;4.00;;;16.10;99.50;;;;;;2098416;28;20039;-71
2023/06/15 03:13:00;;;;;;;4.53;3.65;;;16.00;98.70;;;;;;2099760;28;20052;-71
2023/06/15 03:14:00;;;;;;;6.38;4.72;;;16.00;97.60;;;;;;2098244;28;20032;-71
2023/06/15 03:15:01;;;;;;;4.78;4.22;;;16.00;98.50;;;;;;2099412;28;20036;-71
2023/06/15 03:16:02;;;;;;;7.93;4.90;;;16.00;98.80;;;;;;2098040;28;20021;-71
2023/06/15 03:17:02;;;;;;;6.80;4.65;;;16.00;99.20;;;;;;2100664;28;20057;-70
2023/06/15 03:18:07;;;;;;;5.13;4.63;;;16.00;99.90;;;;;;2098011;28;20089;-70
2023/06/15 03:19:07;;;;;;;5.75;4.40;;;16.00;99.90;;;;;;2098889;28;20032;-70
2023/06/15 03:20:11;;;;;;;6.38;4.57;;;16.00;99.90;;;;;;2098875;28;20051;-70
2023/06/15 03:21:12;;;;;;;6.13;4.75;;;16.00;99.90;;;;;;2100802;28;20024;-70
2023/06/15 03:22:14;;;;;;;6.97;5.43;;;16.00;99.90;;;;;;2099673;28;20517;-70
2023/06/15 03:23:15;;;;;;;6.05;4.75;;;16.10;99.90;;;;;;2098096;28;20048;-70
2023/06/15 03:24:16;;;;;;;5.22;4.30;;;16.00;99.90;;;;;;2100471;28;20032;-70
2023/06/15 03:25:16;;;;;;;5.40;4.90;;;16.00;99.40;;;;;;2099975;28;20012;-70
2023/06/15 03:26:17;;;;;;;6.10;4.93;;;16.00;99.90;;;;;;2100228;28;20016;-70
2023/06/15 03:27:17;;;;;;;8.30;4.88;;;16.00;99.90;;;;;;2099365;28;20021;-70
2023/06/15 03:28:22;;;;;;;6.43;5.20;;;16.00;99.90;;;;;;2098852;28;20047;-70
2023/06/15 03:29:26;;;;;;;7.93;4.75;;;16.00;99.90;;;;;;2098813;28;20028;-70
2023/06/15 03:30:27;;;;;;;6.18;4.95;;;16.00;99.90;;;;;;2097605;28;20055;-70
2023/06/15 03:31:28;;;;;;;5.03;4.63;;;16.00;99.90;;;;;;2098148;28;20027;-70
2023/06/15 03:32:29;;;;;;;4.60;4.20;;;16.00;99.90;;;;;;2099790;28;20024;-70
2023/06/15 03:33:30;;;;;;;6.93;4.57;;;16.00;99.90;;;;;;2099698;28;20020;-70
2023/06/15 03:34:31;;;;;;;5.25;4.63;;;16.00;99.90;;;;;;2097465;28;20019;-70
2023/06/15 03:35:31;;;;;;;4.90;4.47;;;16.00;99.90;;;;;;2097458;28;20031;-70
2023/06/15 03:36:32;;;;;;;6.10;5.25;;;16.00;99.90;;;;;;2099845;28;20020;-70
2023/06/15 03:37:32;;;;;;;6.78;4.57;;;16.00;99.90;;;;;;2099189;28;20301;-70
2023/06/15 03:38:33;;;;;;;7.03;5.45;;;16.00;99.90;;;;;;2098390;28;21023;-70
2023/06/15 03:39:33;;;;;;;6.20;4.45;;;16.00;99.90;;;;;;2099309;28;20020;-70
2023/06/15 03:40:38;;;;;;;8.10;4.85;;;16.00;99.90;;;;;;2097443;28;20021;-70
2023/06/15 03:41:38;;;;;;;5.20;4.70;;;16.00;99.90;;;;;;2098037;28;20044;-70
2023/06/15 03:42:39;;;;;;;6.22;4.60;;;16.00;99.90;;;;;;2100508;28;20050;-70
2023/06/15 03:43:39;;;;;;;5.20;4.60;;;16.00;99.90;;;;;;2097944;28;20019;-70
2023/06/15 03:44:40;;;;;;;7.03;4.90;;;16.00;99.90;;;;;;2098560;28;20094;-70
2023/06/15 03:45:40;;;;;;;7.10;5.50;;;16.00;99.90;;;;;;2100708;28;20024;-70
2023/06/15 03:46:41;;;;;;;5.28;4.78;;;16.00;99.90;;;;;;2100980;28;20100;-70
2023/06/15 03:47:42;;;;;;;5.88;4.97;;;16.00;99.90;;;;;;2099211;28;20036;-70
2023/06/15 03:48:42;;;;;;;5.22;4.68;;;16.00;99.90;;;;;;2100028;28;20021;-70
2023/06/15 03:49:43;;;;;;;4.30;3.90;;;16.00;99.90;;;;;;2098915;28;20046;-70
2023/06/15 03:50:43;;;;;;;5.15;4.65;;;16.00;99.90;;;;;;2097915;28;20025;-70
2023/06/15 03:51:44;;;;;;;4.97;4.47;;;16.00;99.90;;;;;;2099320;28;20032;-70
2023/06/15 03:52:44;;;;;;;6.35;4.55;;;16.00;99.90;;;;;;2097723;28;20063;-70
2023/06/15 03:53:45;;;;;;;5.13;4.63;;;16.00;99.90;;;;;;2100150;28;20696;-70
2023/06/15 03:54:46;;;;;;;5.50;4.70;;;16.00;99.90;;;;;;2098205;28;20388;-70
2023/06/15 03:55:46;;;;;;;5.78;4.82;;;16.00;99.90;;;;;;2099686;28;20119;-70
2023/06/15 03:56:47;;;;;;;4.78;4.38;;;16.00;99.90;;;;;;2100963;28;20028;-70
2023/06/15 03:57:47;;;;;;;5.47;4.57;;;16.10;99.90;;;;;;2097035;28;20013;-70
2023/06/15 03:58:48;;;;;;;4.93;4.40;;;16.10;99.90;;;;;;2097777;28;20433;-70
2023/06/15 03:59:48;;;;;;;6.32;5.30;;;16.10;99.90;;;;;;2098138;28;20020;-70
2023/06/15 04:00:51;;;;;;;5.40;4.93;;;16.20;99.90;;;;;;2098280;28;20032;-70
2023/06/15 04:01:51;;;;;;;5.32;4.82;;;16.20;99.90;;;;;;2098827;28;20077;-70
2023/06/15 04:02:52;;;;;;;6.50;5.22;;;16.20;99.90;;;;;;2098879;28;20085;-70
2023/06/15 04:03:54;;;;;;;7.32;5.28;;;16.30;99.90;;;;;;2097278;28;20617;-70
2023/06/15 04:04:56;;;;;;;7.55;5.72;;;16.30;99.90;;;;;;2098753;28;20082;-70
2023/06/15 04:05:57;;;;;;;9.25;4.95;;;16.40;99.90;;;;;;2097889;28;20044;-70
2023/06/15 04:06:58;;;;;;;5.30;4.90;;;16.50;99.90;;;;;;2097575;28;20023;-70
2023/06/15 04:07:59;;;;;;;7.05;5.43;;;16.60;99.90;;;;;;2099134;28;20456;-70
2023/06/15 04:09:00;;;;;;;6.00;5.40;;;16.70;99.90;;;;;;2096095;28;20580;-70
2023/06/15 04:10:00;;;;;;;7.15;5.45;;;16.80;99.90;;;;;;2095434;28;20459;-70
2023/06/15 04:11:01;;;;;;;8.80;5.03;;;16.90;99.90;;;;;;2100575;28;20033;-70
2023/06/15 04:12:02;;;;;;;7.15;5.10;;;17.00;99.90;;;;;;2098857;28;20020;-70
2023/06/15 04:13:03;;;;;;;5.20;4.70;;;17.30;99.90;;;;;;2098211;28;20060;-70
2023/06/15 04:14:04;;;;;;;8.00;5.40;;;17.40;99.90;;;;;;2097940;28;20051;-70
2023/06/15 04:15:05;;;;;;;6.80;5.50;;;17.60;99.90;;;;;;2099518;28;20107;-70
2023/06/15 04:16:06;;;;;;;6.55;4.72;;;17.80;99.90;;;;;;2099892;28;20028;-70
2023/06/15 04:17:06;;;;;;;4.75;4.35;;;17.90;99.90;;;;;;2098313;28;20035;-70
2023/06/15 04:18:07;;;;;;;7.05;4.93;;;18.10;99.50;;;;;;2097342;28;20028;-70
2023/06/15 04:19:08;;;;;;;7.43;4.60;;;18.20;98.70;;;;;;2099350;28;20107;-70
2023/06/15 04:20:09;;;;;;;5.97;4.72;;;18.40;97.90;;;;;;2098926;28;20024;-70
2023/06/15 04:21:09;;;;;;;8.32;4.82;;;18.50;97.80;;;;;;2100487;28;20432;-70
2023/06/15 04:22:10;;;;;;;6.53;4.80;;;18.60;98.00;;;;;;2099599;28;20031;-70
2023/06/15 04:23:11;;;;;;;6.95;5.20;;;18.70;97.70;;;;;;2097829;28;20073;-70
2023/06/15 04:24:12;;;;;;;8.02;5.13;;;18.90;98.00;;;;;;2099505;28;20515;-70
2023/06/15 04:25:12;;;;;;;5.53;4.88;;;19.00;97.80;;;;;;2098075;28;20028;-70
2023/06/15 04:26:13;;;;;;;7.32;4.95;;;19.00;97.20;;;;;;2097869;28;20029;-70
2023/06/15 04:27:18;;;;;;;7.05;4.50;;;19.10;97.40;;;;;;2099005;28;20036;-71
2023/06/15 04:28:20;;;;;;;6.35;4.85;;;19.10;96.90;;;;;;2098109;28;20036;-71
2023/06/15 04:29:22;;;;;;;7.88;5.32;;;19.00;97.20;;;;;;2099443;28;20150;-71
2023/06/15 04:30:24;;;;;;;9.27;4.80;;;19.00;96.80;;;;;;2098306;28;20024;-71
2023/06/15 04:31:25;;;;;;;6.20;4.47;;;18.90;97.30;;;;;;2098573;28;20520;-71
2023/06/15 04:32:30;;;;;;;5.28;4.72;;;18.90;97.10;;;;;;2098255;28;20023;-71
2023/06/15 04:33:30;;;;;;;8.55;4.93;;;18.90;97.30;;;;;;2099023;28;20013;-71
2023/06/15 04:34:31;;;;;;;7.05;4.68;;;18.90;97.70;;;;;;2099275;28;20027;-71
2023/06/15 04:35:34;;;;;;;7.07;4.50;;;18.90;98.00;;;;;;2098627;28;20890;-71
2023/06/15 04:36:38;;;;;;;10.15;5.10;;;18.90;98.90;;;;;;2098535;28;20154;-71
2023/06/15 04:37:41;;;;;;;5.65;5.00;;;18.90;99.70;;;;;;2097456;28;20048;-71
2023/06/15 04:38:46;;;;;;;6.75;4.78;;;19.00;99.90;;;;;;2098582;28;20036;-71
2023/06/15 04:39:46;;;;;;;8.48;5.72;;;19.00;99.90;;;;;;2096895;28;20119;-71
2023/06/15 04:40:48;;;;;;;5.60;4.72;;;19.00;99.90;;;;;;2097410;28;20016;-71
2023/06/15 04:41:48;;;;;;;6.95;4.45;;;19.10;99.90;;;;;;2098581;28;20055;-71
2023/06/15 04:42:49;;;;;;;5.30;4.43;;;19.10;99.90;;;;;;2098893;28;20024;-71
2023/06/15 04:43:50;;;;;;;5.95;4.70;;;19.10;99.90;;;;;;2097861;28;20396;-71
2023/06/15 04:44:50;;;;;;;7.28;5.68;;;19.20;99.90;;;;;;2098569;28;20031;-71
2023/06/15 04:45:51;;;;;;;7.05;5.32;;;19.20;99.90;;;;;;2098682;28;20053;-71
2023/06/15 04:46:52;;;;;;;7.93;4.82;;;19.30;99.90;;;;;;2100284;28;20020;-71
2023/06/15 04:47:53;;;;;;;7.22;5.47;;;19.30;99.90;;;;;;2097927;28;20021;-71
2023/06/15 04:48:56;;;;;;;8.75;5.28;;;19.40;99.90;;;;;;2098345;28;20051;-71
2023/06/15 04:49:57;;;;;;;10.90;5.47;;;19.40;99.90;;;;;;2098079;28;20024;-71
2023/06/15 04:51:05;;;;;;;6.75;5.63;;;19.50;99.90;;;;;;2096896;28;20111;-71
2023/06/15 04:52:05;;;;;;;8.13;4.90;;;19.50;99.90;;;;;;2097817;28;20123;-71
2023/06/15 04:53:06;;;;;;;8.23;4.75;;;19.60;99.90;;;;;;2099976;28;20020;-71
2023/06/15 04:54:07;;;;;;;6.00;4.72;;;19.60;99.90;;;;;;2098502;28;20055;-71
2023/06/15 04:55:08;;;;;;;6.18;4.72;;;19.70;99.90;;;;;;2099460;28;20035;-71
2023/06/15 04:56:09;;;;;;;8.80;5.40;;;19.80;99.90;;;;;;2097428;28;20321;-71
2023/06/15 04:57:09;;;;;;;10.30;5.57;;;19.80;99.40;;;;;;2098711;28;20036;-71
2023/06/15 04:58:12;;;;;;;7.82;5.28;;;19.90;99.50;;;;;;2100158;28;20362;-71
2023/06/15 04:59:12;;;;;;;7.68;4.90;;;20.00;98.20;;;;;;2096823;28;20027;-71
2023/06/15 05:00:13;;;;;;;9.02;6.53;;;20.00;96.60;;;;;;2097543;28;20052;-71
2023/06/15 05:01:14;;;;;;;7.35;5.43;;;20.10;98.10;;;;;;2098408;28;20320;-71
2023/06/15 05:02:15;;;;;;;6.63;5.22;;;20.10;97.20;;;;;;2098373;28;20096;-71
2023/06/15 05:03:17;;;;;;;8.18;4.80;;;20.20;96.10;;;;;;2099588;28;20025;-71
2023/06/15 05:04:17;;;;;;;8.23;5.32;;;20.30;96.20;;;;;;2098938;28;20063;-71
2023/06/15 05:05:18;;;;;;;7.07;5.50;;;20.40;97.00;;;;;;2099986;28;20024;-71
2023/06/15 05:06:18;;;;;;;8.07;5.55;;;20.40;95.80;;;;;;2098469;28;20021;-71
2023/06/15 05:07:19;;;;;;;6.90;5.80;;;20.50;95.20;;;;;;2096576;28;20031;-71
2023/06/15 05:08:20;;;;;;;7.97;5.25;;;20.50;95.40;;;;;;2098532;28;20170;-71
2023/06/15 05:09:20;;;;;;;7.30;5.63;;;20.70;95.10;;;;;;2097001;28;20024;-71
2023/06/15 05:10:21;;;;;;;9.68;5.70;;;20.70;95.00;;;;;;2095290;28;20609;-71
2023/06/15 05:11:21;;;;;;;8.43;5.45;;;20.80;94.40;;;;;;2098363;28;20027;-71
2023/06/15 05:12:22;;;;;;;7.28;5.10;;;20.80;94.40;;;;;;2100333;28;20052;-71
2023/06/15 05:13:23;;;;;;;10.27;5.43;;;20.90;93.70;;;;;;2097286;28;20024;-71
2023/06/15 05:14:26;;;;;;;9.43;5.55;;;21.00;94.00;;;;;;2097698;28;20029;-71
2023/06/15 05:15:26;;;;;;;5.75;5.07;;;21.10;93.60;;;;;;2098015;28;20024;-71
2023/06/15 05:16:27;;;;;;;10.10;5.07;;;21.20;93.60;;;;;;2099641;28;20026;-71
2023/06/15 05:17:27;;;;;;;6.53;5.25;;;21.20;93.50;;;;;;2099763;28;20027;-71
2023/06/15 05:18:28;;;;;;;7.97;5.60;;;21.30;92.80;;;;;;2098283;28;20112;-71
2023/06/15 05:19:32;;;;;;;12.93;5.82;;;21.30;92.60;;;;;;2100149;28;20032;-71
2023/06/15 05:20:33;;;;;;;8.70;5.60;;;21.40;92.50;;;;;;2097204;28;20451;-71